createdAt,value
2023-01-17T00:00:16.975Z,945.81
2023-01-17T00:01:17.005Z,945.79
2023-01-17T00:02:17.122Z,945.76
2023-01-17T00:03:17.086Z,945.75
2023-01-17T00:04:17.129Z,945.77
2023-01-17T00:05:17.169Z,945.72
2023-01-17T00:06:17.207Z,945.74
2023-01-17T00:07:17.261Z,945.70
2023-01-17T00:08:17.280Z,945.64
2023-01-17T00:09:17.323Z,945.65
2023-01-17T00:10:17.378Z,945.70
2023-01-17T00:11:17.437Z,945.68
2023-01-17T00:12:17.472Z,945.56
2023-01-17T00:13:17.500Z,945.58
2023-01-17T00:14:17.535Z,945.62
2023-01-17T00:15:17.580Z,945.54
2023-01-17T00:16:17.670Z,945.58
2023-01-17T00:17:17.656Z,945.61
2023-01-17T00:18:17.715Z,945.60
2023-01-17T00:19:17.741Z,945.56
2023-01-17T00:20:20.014Z,945.53
2023-01-17T00:21:17.849Z,945.53
2023-01-17T00:22:17.854Z,945.55
2023-01-17T00:23:17.906Z,945.49
2023-01-17T00:24:17.969Z,945.48
2023-01-17T00:25:18.010Z,945.39
2023-01-17T00:26:18.033Z,945.38
2023-01-17T00:27:18.064Z,945.37
2023-01-17T00:28:18.101Z,945.33
2023-01-17T00:29:18.137Z,945.46
2023-01-17T00:30:18.205Z,945.43
2023-01-17T00:31:18.294Z,945.44
2023-01-17T00:32:18.263Z,945.45
2023-01-17T00:33:18.331Z,945.49
2023-01-17T00:34:18.349Z,945.56
2023-01-17T00:35:18.392Z,945.48
2023-01-17T00:36:18.432Z,945.44
2023-01-17T00:37:18.471Z,945.45
2023-01-17T00:38:18.536Z,945.44
2023-01-17T00:39:18.555Z,945.45
2023-01-17T00:40:18.594Z,945.46
2023-01-17T00:41:19.413Z,945.45
2023-01-17T00:42:18.679Z,945.46
2023-01-17T00:43:18.747Z,945.52
2023-01-17T00:44:18.748Z,945.50
2023-01-17T00:45:18.798Z,945.56
2023-01-17T00:46:18.856Z,945.58
2023-01-17T00:47:18.877Z,945.56
2023-01-17T00:48:18.944Z,945.58
2023-01-17T00:49:18.966Z,945.61
2023-01-17T00:50:18.991Z,945.60
2023-01-17T00:51:19.032Z,945.60
2023-01-17T00:52:19.079Z,945.64
2023-01-17T00:53:19.136Z,945.62
2023-01-17T00:54:19.168Z,945.58
2023-01-17T00:55:19.231Z,945.53
2023-01-17T00:56:19.234Z,945.60
2023-01-17T00:57:19.289Z,945.59
2023-01-17T00:58:19.316Z,945.60
2023-01-17T00:59:19.355Z,945.65
2023-01-17T01:00:19.430Z,945.67
2023-01-17T01:01:19.541Z,945.68
2023-01-17T01:02:19.530Z,945.63
2023-01-17T01:03:19.528Z,945.65
2023-01-17T01:04:19.566Z,945.73
2023-01-17T01:05:19.622Z,945.63
2023-01-17T01:06:19.675Z,945.58
2023-01-17T01:07:19.680Z,945.59
2023-01-17T01:08:19.750Z,945.59
2023-01-17T01:09:19.771Z,945.52
2023-01-17T01:10:19.805Z,945.54
2023-01-17T01:11:19.877Z,945.55
2023-01-17T01:12:19.901Z,945.58
2023-01-17T01:13:19.937Z,945.57
2023-01-17T01:14:19.978Z,945.56
2023-01-17T01:15:20.009Z,945.62
2023-01-17T01:16:20.114Z,945.67
2023-01-17T01:17:20.094Z,945.58
2023-01-17T01:18:20.129Z,945.58
2023-01-17T01:19:20.423Z,945.64
2023-01-17T01:20:20.241Z,945.66
2023-01-17T01:21:20.258Z,945.70
2023-01-17T01:22:20.328Z,945.58
2023-01-17T01:23:20.340Z,945.54
2023-01-17T01:24:20.373Z,945.59
2023-01-17T01:25:20.422Z,945.57
2023-01-17T01:26:20.457Z,945.60
2023-01-17T01:27:20.518Z,945.58
2023-01-17T01:28:20.569Z,945.57
2023-01-17T01:29:20.586Z,945.55
2023-01-17T01:30:20.643Z,945.56
2023-01-17T01:31:20.681Z,945.51
2023-01-17T01:32:20.717Z,945.51
2023-01-17T01:33:20.880Z,945.56
2023-01-17T01:34:20.782Z,945.56
2023-01-17T01:35:20.823Z,945.54
2023-01-17T01:36:20.858Z,945.59
2023-01-17T01:37:20.900Z,945.58
2023-01-17T01:38:20.967Z,945.60
2023-01-17T01:39:20.978Z,945.61
2023-01-17T01:40:21.017Z,945.60
2023-01-17T01:41:21.072Z,945.58
2023-01-17T01:42:21.105Z,945.57
2023-01-17T01:43:21.213Z,945.56
2023-01-17T01:44:21.178Z,945.59
2023-01-17T01:45:21.249Z,945.62
2023-01-17T01:46:21.263Z,945.59
2023-01-17T01:47:21.294Z,945.60
2023-01-17T01:48:21.365Z,945.64
2023-01-17T01:49:21.415Z,945.58
2023-01-17T01:50:21.425Z,945.61
2023-01-17T01:51:21.454Z,945.62
2023-01-17T01:52:21.504Z,945.63
2023-01-17T01:53:21.536Z,945.62
2023-01-17T01:54:21.617Z,945.67
2023-01-17T01:55:21.618Z,945.66
2023-01-17T01:56:21.658Z,945.65
2023-01-17T01:57:21.726Z,945.65
2023-01-17T01:58:21.747Z,945.65
2023-01-17T01:59:21.775Z,945.66
2023-01-17T02:00:21.816Z,945.64
2023-01-17T02:01:21.980Z,945.65
2023-01-17T02:02:21.905Z,945.61
2023-01-17T02:03:21.945Z,945.63
2023-01-17T02:04:21.983Z,945.63
2023-01-17T02:05:22.026Z,945.62
2023-01-17T02:06:22.083Z,945.59
2023-01-17T02:07:22.113Z,945.56
2023-01-17T02:08:22.142Z,945.52
2023-01-17T02:09:22.179Z,945.56
2023-01-17T02:10:22.225Z,945.53
2023-01-17T02:11:22.259Z,945.45
2023-01-17T02:12:22.323Z,945.38
2023-01-17T02:13:22.348Z,945.41
2023-01-17T02:14:22.388Z,945.38
2023-01-17T02:15:22.422Z,945.36
2023-01-17T02:16:22.537Z,945.38
2023-01-17T02:17:22.525Z,945.35
2023-01-17T02:18:22.569Z,945.36
2023-01-17T02:19:22.597Z,945.36
2023-01-17T02:20:22.619Z,945.37
2023-01-17T02:21:22.658Z,945.38
2023-01-17T02:22:22.705Z,945.35
2023-01-17T02:23:22.782Z,945.32
2023-01-17T02:24:22.781Z,945.31
2023-01-17T02:25:22.838Z,945.30
2023-01-17T02:26:22.879Z,945.28
2023-01-17T02:27:22.926Z,945.28
2023-01-17T02:28:22.947Z,945.20
2023-01-17T02:29:23.017Z,945.25
2023-01-17T02:34:43.955Z,945.33
2023-01-17T02:35:43.973Z,945.29
2023-01-17T02:36:44.023Z,945.27
2023-01-17T02:41:24.870Z,945.23
2023-01-17T02:42:24.896Z,945.21
2023-01-17T02:43:24.927Z,945.18
2023-01-17T02:44:24.999Z,945.15
2023-01-17T02:45:25.004Z,945.17
2023-01-17T02:46:25.057Z,945.14
2023-01-17T02:47:25.110Z,945.14
2023-01-17T02:48:25.165Z,945.09
2023-01-17T02:49:25.173Z,945.12
2023-01-17T02:50:25.204Z,945.13
2023-01-17T02:51:25.249Z,945.15
2023-01-17T02:52:25.293Z,945.14
2023-01-17T02:53:25.351Z,945.16
2023-01-17T02:54:25.392Z,945.11
2023-01-17T02:55:25.404Z,945.15
2023-01-17T02:56:25.446Z,945.13
2023-01-17T02:57:25.504Z,945.17
2023-01-17T02:58:25.532Z,945.10
2023-01-17T02:59:25.590Z,945.17
2023-01-17T03:00:25.621Z,945.12
2023-01-17T03:01:25.803Z,945.09
2023-01-17T03:02:25.779Z,945.11
2023-01-17T03:03:25.744Z,945.13
2023-01-17T03:04:25.762Z,945.16
2023-01-17T03:05:25.797Z,945.14
2023-01-17T03:06:25.867Z,945.15
2023-01-17T03:07:25.872Z,945.13
2023-01-17T03:08:25.934Z,945.09
2023-01-17T03:09:25.956Z,945.08
2023-01-17T03:10:25.990Z,945.08
2023-01-17T03:11:26.051Z,945.09
2023-01-17T03:12:26.098Z,945.05
2023-01-17T03:13:26.123Z,945.11
2023-01-17T03:14:26.151Z,945.14
2023-01-17T03:15:26.191Z,945.11
2023-01-17T03:16:26.287Z,945.06
2023-01-17T03:17:26.301Z,945.06
2023-01-17T03:18:26.339Z,945.05
2023-01-17T03:19:26.348Z,945.04
2023-01-17T03:20:26.394Z,945.06
2023-01-17T03:21:26.432Z,945.03
2023-01-17T03:22:26.487Z,945.04
2023-01-17T03:23:26.536Z,945.09
2023-01-17T03:24:26.555Z,945.05
2023-01-17T03:25:26.590Z,945.14
2023-01-17T03:26:26.621Z,945.12
2023-01-17T03:27:26.658Z,945.08
2023-01-17T03:28:26.723Z,945.09
2023-01-17T03:29:26.770Z,945.14
2023-01-17T03:30:26.803Z,945.15
2023-01-17T03:31:26.821Z,945.13
2023-01-17T03:32:26.892Z,945.10
2023-01-17T03:33:26.904Z,945.12
2023-01-17T03:34:26.938Z,945.10
2023-01-17T03:35:26.972Z,945.11
2023-01-17T03:36:27.019Z,945.11
2023-01-17T03:37:27.087Z,945.09
2023-01-17T03:38:27.092Z,945.02
2023-01-17T03:39:27.139Z,945.03
2023-01-17T03:40:27.174Z,945.03
2023-01-17T03:41:27.224Z,945.04
2023-01-17T03:42:27.276Z,945.03
2023-01-17T03:43:27.292Z,945.04
2023-01-17T03:44:27.332Z,945.05
2023-01-17T03:45:27.372Z,945.03
2023-01-17T03:46:27.422Z,945.02
2023-01-17T03:47:27.477Z,945.02
2023-01-17T03:48:27.481Z,944.94
2023-01-17T03:49:27.523Z,945.00
2023-01-17T03:50:27.596Z,944.96
2023-01-17T03:51:27.600Z,944.96
2023-01-17T03:52:27.645Z,944.95
2023-01-17T03:53:27.676Z,944.93
2023-01-17T03:54:27.722Z,944.95
2023-01-17T03:55:27.788Z,944.94
2023-01-17T03:56:27.805Z,944.98
2023-01-17T03:57:27.836Z,944.96
2023-01-17T03:58:27.871Z,944.97
2023-01-17T03:59:27.933Z,944.98
2023-01-17T04:00:27.954Z,944.96
2023-01-17T04:01:28.116Z,944.94
2023-01-17T04:02:28.087Z,944.97
2023-01-17T04:03:28.073Z,944.97
2023-01-17T04:04:28.129Z,945.00
2023-01-17T04:05:28.154Z,944.95
2023-01-17T04:06:28.215Z,944.98
2023-01-17T04:07:28.245Z,944.99
2023-01-17T04:08:28.263Z,944.98
2023-01-17T04:09:28.302Z,944.99
2023-01-17T04:10:28.349Z,944.98
2023-01-17T04:11:28.411Z,944.99
2023-01-17T04:12:28.434Z,944.98
2023-01-17T04:13:28.457Z,944.98
2023-01-17T04:14:28.493Z,945.00
2023-01-17T04:15:28.544Z,945.01
2023-01-17T04:16:28.645Z,945.01
2023-01-17T04:17:28.611Z,945.02
2023-01-17T04:18:28.654Z,944.99
2023-01-17T04:19:28.704Z,944.98
2023-01-17T04:20:28.742Z,944.98
2023-01-17T04:21:28.841Z,945.00
2023-01-17T04:22:28.810Z,944.98
2023-01-17T04:23:28.850Z,944.97
2023-01-17T04:24:28.886Z,944.96
2023-01-17T04:25:28.943Z,944.93
2023-01-17T04:26:29.006Z,944.90
2023-01-17T04:27:29.013Z,944.92
2023-01-17T04:28:29.042Z,944.89
2023-01-17T04:29:29.090Z,944.87
2023-01-17T04:30:29.119Z,944.83
2023-01-17T04:31:29.235Z,944.82
2023-01-17T04:32:29.231Z,944.78
2023-01-17T04:33:29.245Z,944.79
2023-01-17T04:34:29.277Z,944.80
2023-01-17T04:35:29.320Z,944.74
2023-01-17T04:36:29.400Z,944.72
2023-01-17T04:37:29.400Z,944.72
2023-01-17T04:38:29.432Z,944.74
2023-01-17T04:39:29.502Z,944.70
2023-01-17T04:40:29.522Z,944.68
2023-01-17T04:41:29.550Z,944.64
2023-01-17T04:42:29.597Z,944.64
2023-01-17T04:43:29.663Z,944.66
2023-01-17T04:44:29.679Z,944.63
2023-01-17T04:45:29.709Z,944.63
2023-01-17T04:46:29.793Z,944.57
2023-01-17T04:47:29.790Z,944.53
2023-01-17T04:48:29.852Z,944.54
2023-01-17T04:49:29.860Z,944.51
2023-01-17T04:50:29.905Z,944.48
2023-01-17T04:51:29.944Z,944.50
2023-01-17T04:52:29.999Z,944.49
2023-01-17T04:53:30.036Z,944.50
2023-01-17T04:54:30.059Z,944.49
2023-01-17T04:55:30.143Z,944.52
2023-01-17T04:56:30.142Z,944.53
2023-01-17T04:57:30.192Z,944.52
2023-01-17T04:58:30.215Z,944.54
2023-01-17T04:59:30.258Z,944.54
2023-01-17T05:00:30.314Z,944.54
2023-01-17T05:01:30.427Z,944.55
2023-01-17T05:02:30.391Z,944.54
2023-01-17T05:03:30.431Z,944.51
2023-01-17T05:04:30.454Z,944.57
2023-01-17T05:05:30.516Z,944.61
2023-01-17T05:06:30.556Z,944.63
2023-01-17T05:07:30.566Z,944.60
2023-01-17T05:08:30.616Z,944.58
2023-01-17T05:09:31.575Z,944.54
2023-01-17T05:10:30.704Z,944.50
2023-01-17T05:11:30.715Z,944.49
2023-01-17T05:12:30.777Z,944.40
2023-01-17T05:13:30.796Z,944.43
2023-01-17T05:14:30.841Z,944.44
2023-01-17T05:15:31.631Z,944.44
2023-01-17T05:16:30.948Z,944.43
2023-01-17T05:17:30.971Z,944.44
2023-01-17T05:18:31.016Z,944.44
2023-01-17T05:19:31.037Z,944.48
2023-01-17T05:20:31.076Z,944.46
2023-01-17T05:21:31.099Z,944.44
2023-01-17T05:22:31.143Z,944.43
2023-01-17T05:23:31.213Z,944.44
2023-01-17T05:24:31.216Z,944.44
2023-01-17T05:25:31.254Z,944.45
2023-01-17T05:26:31.317Z,944.45
2023-01-17T05:27:31.333Z,944.42
2023-01-17T05:28:31.385Z,944.42
2023-01-17T05:29:31.409Z,944.43
2023-01-17T05:30:31.451Z,944.44
2023-01-17T05:31:31.519Z,944.42
2023-01-17T05:32:31.536Z,944.44
2023-01-17T05:33:31.567Z,944.39
2023-01-17T05:34:31.602Z,944.45
2023-01-17T05:35:31.643Z,944.47
2023-01-17T05:36:31.710Z,944.44
2023-01-17T05:37:31.725Z,944.43
2023-01-17T05:38:31.787Z,944.48
2023-01-17T05:39:31.792Z,944.47
2023-01-17T05:40:31.840Z,944.50
2023-01-17T05:41:31.899Z,944.49
2023-01-17T05:42:31.907Z,944.48
2023-01-17T05:43:31.990Z,944.49
2023-01-17T05:44:32.020Z,944.51
2023-01-17T05:45:32.024Z,944.46
2023-01-17T05:46:32.077Z,944.46
2023-01-17T05:47:33.084Z,944.44
2023-01-17T05:48:32.149Z,944.45
2023-01-17T05:49:32.204Z,944.42
2023-01-17T05:50:32.265Z,944.43
2023-01-17T05:51:32.266Z,944.42
2023-01-17T05:52:32.295Z,944.41
2023-01-17T05:53:33.076Z,944.38
2023-01-17T05:54:32.399Z,944.39
2023-01-17T05:55:32.422Z,944.37
2023-01-17T05:56:32.534Z,944.32
2023-01-17T05:57:32.493Z,944.29
2023-01-17T05:58:32.542Z,944.29
2023-01-17T05:59:37.502Z,944.21
2023-01-17T06:00:32.610Z,944.20
2023-01-17T06:01:32.670Z,944.17
2023-01-17T06:02:32.711Z,944.12
2023-01-17T06:03:32.733Z,944.09
2023-01-17T06:04:32.821Z,944.07
2023-01-17T06:05:32.818Z,944.09
2023-01-17T06:06:32.866Z,944.05
2023-01-17T06:07:32.888Z,944.01
2023-01-17T06:08:32.946Z,943.99
2023-01-17T06:09:32.957Z,943.96
2023-01-17T06:10:33.026Z,943.97
2023-01-17T06:11:33.029Z,943.95
2023-01-17T06:12:33.579Z,943.94
2023-01-17T06:13:33.133Z,943.93
2023-01-17T06:14:33.157Z,943.91
2023-01-17T06:15:33.182Z,943.96
2023-01-17T06:16:33.259Z,943.96
2023-01-17T06:17:33.264Z,943.96
2023-01-17T06:18:33.309Z,943.94
2023-01-17T06:19:33.350Z,943.95
2023-01-17T06:20:33.381Z,943.94
2023-01-17T06:21:33.434Z,943.95
2023-01-17T06:22:33.454Z,943.95
2023-01-17T06:23:33.524Z,943.96
2023-01-17T06:24:33.532Z,944.00
2023-01-17T06:25:33.562Z,944.01
2023-01-17T06:26:33.608Z,943.99
2023-01-17T06:27:33.680Z,943.98
2023-01-17T06:28:33.700Z,944.01
2023-01-17T06:29:33.735Z,943.99
2023-01-17T06:30:33.767Z,943.94
2023-01-17T06:31:33.870Z,943.98
2023-01-17T06:32:33.833Z,944.01
2023-01-17T06:33:33.894Z,944.00
2023-01-17T06:34:33.909Z,943.97
2023-01-17T06:35:33.951Z,944.00
2023-01-17T06:36:34.005Z,943.98
2023-01-17T06:37:34.026Z,944.00
2023-01-17T06:38:34.094Z,944.04
2023-01-17T06:39:34.115Z,944.06
2023-01-17T06:40:34.158Z,944.09
2023-01-17T06:41:34.190Z,944.11
2023-01-17T06:42:34.241Z,944.11
2023-01-17T06:43:34.296Z,944.14
2023-01-17T06:44:34.306Z,944.10
2023-01-17T06:45:34.335Z,944.11
2023-01-17T06:46:34.406Z,944.06
2023-01-17T06:47:34.491Z,944.07
2023-01-17T06:48:34.457Z,944.05
2023-01-17T06:49:34.486Z,944.02
2023-01-17T06:50:34.570Z,944.03
2023-01-17T06:51:34.573Z,944.00
2023-01-17T06:52:34.634Z,943.98
2023-01-17T06:53:34.671Z,943.96
2023-01-17T06:54:34.680Z,943.93
2023-01-17T06:55:34.717Z,943.93
2023-01-17T06:56:34.777Z,943.91
2023-01-17T06:57:34.824Z,943.87
2023-01-17T06:58:34.841Z,943.83
2023-01-17T06:59:34.908Z,943.84
2023-01-17T07:00:35.087Z,943.77
2023-01-17T07:01:35.084Z,943.76
2023-01-17T07:02:34.991Z,943.72
2023-01-17T07:03:35.054Z,943.67
2023-01-17T07:04:35.087Z,943.67
2023-01-17T07:05:35.117Z,943.68
2023-01-17T07:06:35.147Z,943.71
2023-01-17T07:07:35.182Z,943.76
2023-01-17T07:08:35.252Z,943.77
2023-01-17T07:09:35.254Z,943.71
2023-01-17T07:10:35.305Z,943.72
2023-01-17T07:11:35.369Z,943.69
2023-01-17T07:12:35.376Z,943.65
2023-01-17T07:13:36.452Z,943.61
2023-01-17T07:14:35.446Z,943.58
2023-01-17T07:15:35.500Z,943.56
2023-01-17T07:16:35.607Z,943.57
2023-01-17T07:17:35.563Z,943.54
2023-01-17T07:18:35.617Z,943.55
2023-01-17T07:19:35.661Z,943.50
2023-01-17T07:20:35.711Z,943.49
2023-01-17T07:21:35.738Z,943.49
2023-01-17T07:22:35.786Z,943.46
2023-01-17T07:23:35.805Z,943.48
2023-01-17T07:24:35.842Z,943.42
2023-01-17T07:25:35.879Z,943.44
2023-01-17T07:26:36.611Z,943.48
2023-01-17T07:27:35.970Z,943.49
2023-01-17T07:28:35.987Z,943.52
2023-01-17T07:29:36.041Z,943.57
2023-01-17T07:30:36.074Z,943.58
2023-01-17T07:31:36.136Z,943.58
2023-01-17T07:32:36.171Z,943.59
2023-01-17T07:33:36.186Z,943.57
2023-01-17T07:34:36.253Z,943.59
2023-01-17T07:35:36.273Z,943.54
2023-01-17T07:36:37.267Z,943.53
2023-01-17T07:37:36.335Z,943.56
2023-01-17T07:38:37.093Z,943.56
2023-01-17T07:39:36.439Z,943.52
2023-01-17T07:40:41.815Z,943.52
2023-01-17T07:41:36.502Z,943.55
2023-01-17T07:42:36.531Z,943.54
2023-01-17T07:43:36.599Z,943.53
2023-01-17T07:44:36.602Z,943.52
2023-01-17T07:45:36.646Z,943.49
2023-01-17T07:46:36.717Z,943.49
2023-01-17T07:47:36.735Z,943.44
2023-01-17T07:48:36.789Z,943.40
2023-01-17T07:49:36.835Z,943.40
2023-01-17T07:50:36.866Z,943.43
2023-01-17T07:51:36.884Z,943.40
2023-01-17T07:52:36.924Z,943.37
2023-01-17T07:53:36.980Z,943.42
2023-01-17T07:54:37.001Z,943.37
2023-01-17T07:55:37.076Z,943.32
2023-01-17T07:56:37.073Z,943.34
2023-01-17T07:57:37.112Z,943.26
2023-01-17T07:58:37.164Z,943.26
2023-01-17T07:59:37.186Z,943.28
2023-01-17T08:00:37.289Z,943.32
2023-01-17T08:01:37.395Z,943.30
2023-01-17T08:02:37.336Z,943.34
2023-01-17T08:03:37.372Z,943.36
2023-01-17T08:04:37.391Z,943.35
2023-01-17T08:05:37.432Z,943.39
2023-01-17T08:06:37.471Z,943.41
2023-01-17T08:07:37.547Z,943.42
2023-01-17T08:08:37.583Z,943.45
2023-01-17T08:09:37.606Z,943.41
2023-01-17T08:10:37.640Z,943.46
2023-01-17T08:11:37.678Z,943.43
2023-01-17T08:12:37.705Z,943.43
2023-01-17T08:13:37.764Z,943.40
2023-01-17T08:14:37.785Z,943.37
2023-01-17T08:15:37.820Z,943.37
2023-01-17T08:16:37.888Z,943.30
2023-01-17T08:17:37.904Z,943.27
2023-01-17T08:18:37.977Z,943.24
2023-01-17T08:19:37.976Z,943.21
2023-01-17T08:20:38.021Z,943.22
2023-01-17T08:21:38.066Z,943.13
2023-01-17T08:22:38.104Z,943.16
2023-01-17T08:23:38.171Z,943.12
2023-01-17T08:24:38.206Z,943.11
2023-01-17T08:25:38.216Z,943.07
2023-01-17T08:26:38.261Z,943.04
2023-01-17T08:27:38.300Z,943.06
2023-01-17T08:28:38.336Z,943.04
2023-01-17T08:29:38.400Z,943.05
2023-01-17T08:30:38.420Z,942.99
2023-01-17T08:31:38.464Z,942.99
2023-01-17T08:32:38.499Z,942.97
2023-01-17T08:33:38.530Z,942.92
2023-01-17T08:34:38.621Z,942.93
2023-01-17T08:35:38.633Z,942.88
2023-01-17T08:36:38.664Z,942.89
2023-01-17T08:37:38.687Z,942.79
2023-01-17T08:38:38.748Z,942.83
2023-01-17T08:39:38.793Z,942.86
2023-01-17T08:40:39.576Z,942.90
2023-01-17T08:41:38.878Z,942.89
2023-01-17T08:42:38.887Z,942.90
2023-01-17T08:43:38.931Z,942.85
2023-01-17T08:44:38.967Z,942.79
2023-01-17T08:45:39.033Z,942.75
2023-01-17T08:46:39.086Z,942.70
2023-01-17T08:47:39.098Z,942.64
2023-01-17T08:48:39.139Z,942.64
2023-01-17T08:49:39.203Z,942.65
2023-01-17T08:50:39.229Z,942.62
2023-01-17T08:51:39.247Z,942.48
2023-01-17T08:52:39.296Z,942.49
2023-01-17T08:53:39.331Z,942.43
2023-01-17T08:54:39.374Z,942.38
2023-01-17T08:55:39.446Z,942.28
2023-01-17T08:56:39.468Z,942.26
2023-01-17T08:57:39.509Z,942.19
2023-01-17T08:58:39.537Z,942.17
2023-01-17T08:59:39.600Z,942.16
2023-01-17T09:00:39.608Z,942.15
2023-01-17T09:01:39.806Z,942.15
2023-01-17T09:02:40.310Z,942.17
2023-01-17T09:03:40.993Z,942.15
2023-01-17T09:04:39.845Z,942.17
2023-01-17T09:05:39.825Z,942.08
2023-01-17T09:06:39.872Z,942.08
2023-01-17T09:07:39.914Z,942.07
2023-01-17T09:08:39.948Z,942.02
2023-01-17T09:09:39.971Z,942.03
2023-01-17T09:10:40.041Z,942.08
2023-01-17T09:11:40.064Z,942.04
2023-01-17T09:12:40.096Z,942.09
2023-01-17T09:13:40.156Z,942.08
2023-01-17T09:14:40.190Z,942.10
2023-01-17T09:15:40.247Z,942.14
2023-01-17T09:16:40.304Z,942.15
2023-01-17T09:17:40.306Z,942.15
2023-01-17T09:18:40.346Z,942.13
2023-01-17T09:19:40.394Z,942.09
2023-01-17T09:20:40.458Z,942.09
2023-01-17T09:21:40.469Z,942.04
2023-01-17T09:22:40.559Z,942.04
2023-01-17T09:23:40.556Z,942.00
2023-01-17T09:24:40.587Z,942.00
2023-01-17T09:25:40.630Z,942.02
2023-01-17T09:26:40.663Z,942.05
2023-01-17T09:27:40.727Z,942.03
2023-01-17T09:28:40.748Z,942.08
2023-01-17T09:29:40.798Z,942.00
2023-01-17T09:30:40.864Z,942.00
2023-01-17T09:31:40.877Z,941.98
2023-01-17T09:32:40.950Z,941.97
2023-01-17T09:33:40.963Z,941.93
2023-01-17T09:34:41.017Z,941.86
2023-01-17T09:35:41.051Z,941.91
2023-01-17T09:36:41.102Z,941.92
2023-01-17T09:37:41.127Z,941.89
2023-01-17T09:38:41.157Z,941.95
2023-01-17T09:39:41.231Z,941.94
2023-01-17T09:40:41.251Z,941.96
2023-01-17T09:41:41.286Z,941.96
2023-01-17T09:42:42.099Z,941.97
2023-01-17T09:43:41.396Z,941.98
2023-01-17T09:44:41.400Z,941.98
2023-01-17T09:45:41.499Z,941.96
2023-01-17T09:46:41.484Z,941.99
2023-01-17T09:47:41.554Z,941.97
2023-01-17T09:48:41.601Z,941.96
2023-01-17T09:49:41.634Z,941.98
2023-01-17T09:50:42.591Z,941.99
2023-01-17T09:51:41.691Z,942.03
2023-01-17T09:52:41.767Z,941.99
2023-01-17T09:53:41.776Z,942.06
2023-01-17T09:54:41.821Z,942.06
2023-01-17T09:55:41.864Z,942.00
2023-01-17T09:56:41.905Z,941.96
2023-01-17T09:57:41.959Z,941.91
2023-01-17T09:58:41.987Z,941.88
2023-01-17T09:59:45.398Z,941.83
2023-01-17T10:00:42.059Z,941.85
2023-01-17T10:01:42.195Z,941.74
2023-01-17T10:02:42.291Z,941.81
2023-01-17T10:03:42.254Z,941.76
2023-01-17T10:04:42.280Z,941.75
2023-01-17T10:05:42.270Z,941.70
2023-01-17T10:06:42.303Z,941.74
2023-01-17T10:07:42.382Z,941.71
2023-01-17T10:08:42.398Z,941.73
2023-01-17T10:09:42.436Z,941.70
2023-01-17T10:10:42.525Z,941.69
2023-01-17T10:11:42.519Z,941.67
2023-01-17T10:12:42.574Z,941.67
2023-01-17T10:13:42.610Z,941.64
2023-01-17T10:14:43.595Z,941.60
2023-01-17T10:15:42.723Z,941.58
2023-01-17T10:16:42.765Z,941.52
2023-01-17T10:17:42.772Z,941.51
2023-01-17T10:18:42.841Z,941.52
2023-01-17T10:19:42.895Z,941.53
2023-01-17T10:20:42.885Z,941.47
2023-01-17T10:21:42.964Z,941.51
2023-01-17T10:22:43.605Z,941.51
2023-01-17T10:23:43.024Z,941.51
2023-01-17T10:24:43.088Z,941.49
2023-01-17T10:25:43.100Z,941.44
2023-01-17T10:26:43.142Z,941.50
2023-01-17T10:27:43.177Z,941.48
2023-01-17T10:28:43.226Z,941.43
2023-01-17T10:29:43.298Z,941.39
2023-01-17T10:30:43.378Z,941.41
2023-01-17T10:31:43.392Z,941.31
2023-01-17T10:32:43.401Z,941.29
2023-01-17T10:33:43.434Z,941.29
2023-01-17T10:34:43.469Z,941.27
2023-01-17T10:35:43.548Z,941.23
2023-01-17T10:36:43.593Z,941.24
2023-01-17T10:37:43.611Z,941.21
2023-01-17T10:38:43.633Z,941.17
2023-01-17T10:39:43.686Z,941.12
2023-01-17T10:40:43.733Z,941.13
2023-01-17T10:41:43.789Z,941.11
2023-01-17T10:42:43.817Z,941.07
2023-01-17T10:43:43.853Z,941.10
2023-01-17T10:44:43.897Z,941.08
2023-01-17T10:45:44.610Z,941.06
2023-01-17T10:46:44.004Z,941.02
2023-01-17T10:47:44.020Z,941.04
2023-01-17T10:48:44.050Z,941.02
2023-01-17T10:49:44.105Z,941.09
2023-01-17T10:50:44.135Z,941.11
2023-01-17T10:51:44.231Z,941.11
2023-01-17T10:52:44.234Z,941.12
2023-01-17T10:53:44.275Z,941.11
2023-01-17T10:54:44.306Z,941.10
2023-01-17T10:55:44.349Z,941.10
2023-01-17T10:56:44.415Z,941.09
2023-01-17T10:57:44.500Z,941.10
2023-01-17T10:58:44.470Z,941.11
2023-01-17T10:59:44.548Z,941.11
2023-01-17T11:00:44.562Z,941.12
2023-01-17T11:01:44.670Z,941.11
2023-01-17T11:02:44.657Z,941.08
2023-01-17T11:03:44.680Z,941.06
2023-01-17T11:04:44.747Z,941.11
2023-01-17T11:05:44.760Z,941.06
2023-01-17T11:06:57.590Z,941.07
2023-01-17T11:07:44.878Z,941.06
2023-01-17T11:08:44.888Z,941.02
2023-01-17T11:09:44.972Z,941.01
2023-01-17T11:10:44.989Z,941.01
2023-01-17T11:11:45.022Z,940.98
2023-01-17T11:12:45.061Z,940.95
2023-01-17T11:13:45.103Z,940.89
2023-01-17T11:14:45.164Z,940.86
2023-01-17T11:15:45.245Z,940.86
2023-01-17T11:16:45.222Z,940.80
2023-01-17T11:17:45.267Z,940.79
2023-01-17T11:18:45.309Z,940.73
2023-01-17T11:19:45.382Z,940.71
2023-01-17T11:20:45.401Z,940.75
2023-01-17T11:21:45.851Z,940.71
2023-01-17T11:22:45.514Z,940.76
2023-01-17T11:23:45.542Z,940.77
2023-01-17T11:24:45.568Z,940.73
2023-01-17T11:25:45.642Z,940.69
2023-01-17T11:26:45.655Z,940.67
2023-01-17T11:27:45.699Z,940.64
2023-01-17T11:28:45.734Z,940.56
2023-01-17T11:29:45.780Z,940.54
2023-01-17T11:30:45.860Z,940.50
2023-01-17T11:31:45.858Z,940.46
2023-01-17T11:32:45.896Z,940.46
2023-01-17T11:33:45.983Z,940.45
2023-01-17T11:34:45.990Z,940.43
2023-01-17T11:35:46.062Z,940.41
2023-01-17T11:36:46.072Z,940.39
2023-01-17T11:37:46.117Z,940.36
2023-01-17T11:38:46.171Z,940.34
2023-01-17T11:39:46.235Z,940.29
2023-01-17T11:40:47.099Z,940.25
2023-01-17T11:41:46.278Z,940.22
2023-01-17T11:42:46.319Z,940.17
2023-01-17T11:43:46.364Z,940.15
2023-01-17T11:44:46.434Z,940.10
2023-01-17T11:45:46.480Z,940.10
2023-01-17T11:46:46.509Z,940.07
2023-01-17T11:47:46.569Z,940.03
2023-01-17T11:48:46.582Z,940.06
2023-01-17T11:49:46.692Z,940.10
2023-01-17T11:50:46.679Z,940.02
2023-01-17T11:51:46.711Z,940.02
2023-01-17T11:52:46.756Z,939.99
2023-01-17T11:53:46.798Z,939.98
2023-01-17T11:54:46.863Z,939.95
2023-01-17T11:55:46.872Z,939.95
2023-01-17T11:56:46.914Z,939.94
2023-01-17T11:57:46.964Z,939.95
2023-01-17T11:58:47.007Z,939.96
2023-01-17T11:59:47.081Z,939.99
2023-01-17T12:00:47.116Z,939.97
2023-01-17T12:01:47.136Z,939.97
2023-01-17T12:02:47.193Z,939.93
2023-01-17T12:03:47.236Z,939.97
2023-01-17T12:04:47.344Z,939.92
2023-01-17T12:05:47.297Z,939.90
2023-01-17T12:06:57.513Z,939.86
2023-01-17T12:07:47.382Z,939.77
2023-01-17T12:08:47.426Z,939.71
2023-01-17T12:09:47.492Z,939.74
2023-01-17T12:10:47.519Z,939.74
2023-01-17T12:11:47.588Z,939.71
2023-01-17T12:12:47.611Z,939.69
2023-01-17T12:13:47.653Z,939.72
2023-01-17T12:14:47.697Z,939.70
2023-01-17T12:15:47.780Z,939.62
2023-01-17T12:16:47.768Z,939.66
2023-01-17T12:17:47.806Z,939.68
2023-01-17T12:18:47.861Z,939.70
2023-01-17T12:19:47.899Z,939.66
2023-01-17T12:20:47.971Z,939.63
2023-01-17T12:21:48.024Z,939.67
2023-01-17T12:22:48.024Z,939.69
2023-01-17T12:23:48.078Z,939.65
2023-01-17T12:24:48.127Z,939.65
2023-01-17T12:25:48.152Z,939.57
2023-01-17T12:26:48.216Z,939.57
2023-01-17T12:27:48.240Z,939.47
2023-01-17T12:28:48.304Z,939.45
2023-01-17T12:29:48.336Z,939.39
2023-01-17T12:30:48.404Z,939.32
2023-01-17T12:31:48.418Z,939.28
2023-01-17T12:32:48.448Z,939.24
2023-01-17T12:33:48.505Z,939.16
2023-01-17T12:34:49.096Z,939.11
2023-01-17T12:35:48.604Z,939.03
2023-01-17T12:36:49.516Z,939.05